ロンドン/ヒースロー の空港の天気 - METARとTAF

ロンドン・ヒースロー空港 ( EGLL / LHR ) - イギリス ロンドン
飛行場実況気象(Metar)
観測時間02/01 07:50 GMT (02/01 07:50 UTC)
風向・風速西南西 5m/s
視程10km以上
天気現象
全天の8割程度の雲 雲底高度 1190m
気温6℃
湿度76%
気圧1025hPa
METAREGLL 010750Z AUTO 24010KT 9999 BKN039 06/02 Q1025
過去の天気等 Google飛行場航空写真 Wunderground天気予報

過去48時間のMETAR

飛行場予報(TAF)
発表時間: 2/01 05:03 GMT (2/01 05:03 UTC)
予報対象時間: 1日6時 GMT ~ 2日12時 GMT
風向・風速西南西 6m/s
視程10km以上
少しの雲 雲底高度 1220m
1日9時 GMT ~ 1日15時 GMT に 確率 30% で一時的に
風向・風速西 8m/s 瞬間風速 13m/s
2日5時 GMT ~ 2日9時 GMT に 確率 40% で一時的に
全天の8割程度の雲 雲底高度 240m
TAF EGLL 010503Z 0106/0212 25012KT 9999 FEW040
PROB30 TEMPO 0109/0115 27015G25KT
PROB40 TEMPO 0205/0209 BKN008